sensor_id;sensor_type;location;lat;lon;timestamp;P1;durP1;ratioP1;P2;durP2;ratioP2
63326;SDS011;49452;48.366;10.926;2023-11-22T00:00:05;13.52;;;12.18;;
63326;SDS011;49452;48.366;10.926;2023-11-22T00:00:56;15.77;;;13.82;;
63326;SDS011;49452;48.366;10.926;2023-11-22T00:01:27;14.55;;;12.25;;
63326;SDS011;49452;48.366;10.926;2023-11-22T00:01:58;15.13;;;13.30;;
63326;SDS011;49452;48.366;10.926;2023-11-22T00:02:29;17.48;;;15.18;;
63326;SDS011;49452;48.366;10.926;2023-11-22T00:03:00;16.05;;;14.20;;
63326;SDS011;49452;48.366;10.926;2023-11-22T00:03:31;22.33;;;17.20;;
63326;SDS011;49452;48.366;10.926;2023-11-22T00:04:02;50.72;;;30.02;;
63326;SDS011;49452;48.366;10.926;2023-11-22T00:04:33;14.90;;;13.05;;
63326;SDS011;49452;48.366;10.926;2023-11-22T00:05:04;15.48;;;14.02;;
63326;SDS011;49452;48.366;10.926;2023-11-22T00:05:36;17.85;;;15.18;;
63326;SDS011;49452;48.366;10.926;2023-11-22T00:06:07;16.83;;;15.10;;
63326;SDS011;49452;48.366;10.926;2023-11-22T00:06:38;15.55;;;13.93;;
63326;SDS011;49452;48.366;10.926;2023-11-22T00:07:08;14.95;;;13.60;;
63326;SDS011;49452;48.366;10.926;2023-11-22T00:07:39;16.88;;;15.18;;
63326;SDS011;49452;48.366;10.926;2023-11-22T00:08:10;16.20;;;14.50;;
63326;SDS011;49452;48.366;10.926;2023-11-22T00:08:42;17.58;;;15.63;;
63326;SDS011;49452;48.366;10.926;2023-11-22T00:09:12;15.10;;;13.70;;
63326;SDS011;49452;48.366;10.926;2023-11-22T00:09:44;16.00;;;14.38;;
63326;SDS011;49452;48.366;10.926;2023-11-22T00:10:17;14.88;;;13.32;;
63326;SDS011;49452;48.366;10.926;2023-11-22T00:10:49;16.88;;;15.10;;
63326;SDS011;49452;48.366;10.926;2023-11-22T00:11:19;20.80;;;17.25;;
63326;SDS011;49452;48.366;10.926;2023-11-22T00:11:50;24.13;;;19.40;;
63326;SDS011;49452;48.366;10.926;2023-11-22T00:12:21;23.08;;;18.50;;
63326;SDS011;49452;48.366;10.926;2023-11-22T00:12:53;17.58;;;15.60;;
63326;SDS011;49452;48.366;10.926;2023-11-22T00:13:24;17.13;;;14.88;;
63326;SDS011;49452;48.366;10.926;2023-11-22T00:13:56;18.75;;;15.10;;
63326;SDS011;49452;48.366;10.926;2023-11-22T00:14:27;16.70;;;15.02;;
63326;SDS011;49452;48.366;10.926;2023-11-22T00:14:57;19.45;;;17.08;;
63326;SDS011;49452;48.366;10.926;2023-11-22T00:15:28;16.25;;;14.50;;
63326;SDS011;49452;48.366;10.926;2023-11-22T00:15:59;15.57;;;14.05;;
63326;SDS011;49452;48.366;10.926;2023-11-22T00:16:31;19.40;;;16.50;;
63326;SDS011;49452;48.366;10.926;2023-11-22T00:17:02;15.63;;;14.05;;
63326;SDS011;49452;48.366;10.926;2023-11-22T00:17:35;15.20;;;13.60;;
63326;SDS011;49452;48.366;10.926;2023-11-22T00:18:06;15.63;;;14.02;;
63326;SDS011;49452;48.366;10.926;2023-11-22T00:18:37;17.50;;;15.63;;
63326;SDS011;49452;48.366;10.926;2023-11-22T00:19:09;16.55;;;14.85;;
63326;SDS011;49452;48.366;10.926;2023-11-22T00:19:40;16.80;;;14.60;;
63326;SDS011;49452;48.366;10.926;2023-11-22T00:20:12;16.27;;;14.23;;
63326;SDS011;49452;48.366;10.926;2023-11-22T00:20:42;15.63;;;14.02;;
63326;SDS011;49452;48.366;10.926;2023-11-22T00:21:14;14.60;;;13.13;;
63326;SDS011;49452;48.366;10.926;2023-11-22T00:21:45;16.23;;;14.45;;
63326;SDS011;49452;48.366;10.926;2023-11-22T00:22:16;44.78;;;28.60;;
63326;SDS011;49452;48.366;10.926;2023-11-22T00:22:47;16.33;;;14.73;;
63326;SDS011;49452;48.366;10.926;2023-11-22T00:23:18;20.65;;;17.60;;
63326;SDS011;49452;48.366;10.926;2023-11-22T00:23:49;16.90;;;15.23;;
63326;SDS011;49452;48.366;10.926;2023-11-22T00:24:20;14.43;;;12.95;;
63326;SDS011;49452;48.366;10.926;2023-11-22T00:24:51;15.95;;;14.30;;
63326;SDS011;49452;48.366;10.926;2023-11-22T00:25:22;15.20;;;13.65;;
63326;SDS011;49452;48.366;10.926;2023-11-22T00:25:53;27.52;;;21.73;;
63326;SDS011;49452;48.366;10.926;2023-11-22T00:26:24;18.17;;;16.27;;
63326;SDS011;49452;48.366;10.926;2023-11-22T00:27:01;17.42;;;15.60;;
63326;SDS011;49452;48.366;10.926;2023-11-22T00:27:32;19.73;;;16.45;;
63326;SDS011;49452;48.366;10.926;2023-11-22T00:28:03;16.85;;;15.05;;
63326;SDS011;49452;48.366;10.926;2023-11-22T00:28:36;20.02;;;15.70;;
63326;SDS011;49452;48.366;10.926;2023-11-22T00:29:07;15.68;;;14.07;;
63326;SDS011;49452;48.366;10.926;2023-11-22T00:29:39;16.58;;;14.57;;
63326;SDS011;49452;48.366;10.926;2023-11-22T00:30:10;15.88;;;14.32;;
63326;SDS011;49452;48.366;10.926;2023-11-22T00:30:41;16.35;;;14.70;;
63326;SDS011;49452;48.366;10.926;2023-11-22T00:31:12;15.07;;;13.52;;
63326;SDS011;49452;48.366;10.926;2023-11-22T00:31:45;24.33;;;17.50;;
63326;SDS011;49452;48.366;10.926;2023-11-22T00:32:16;16.88;;;15.18;;
63326;SDS011;49452;48.366;10.926;2023-11-22T00:32:47;17.20;;;14.77;;
63326;SDS011;49452;48.366;10.926;2023-11-22T00:33:18;15.02;;;13.63;;
63326;SDS011;49452;48.366;10.926;2023-11-22T00:33:50;16.83;;;15.02;;
63326;SDS011;49452;48.366;10.926;2023-11-22T00:34:22;41.80;;;26.42;;
63326;SDS011;49452;48.366;10.926;2023-11-22T00:34:54;44.45;;;27.95;;
63326;SDS011;49452;48.366;10.926;2023-11-22T00:35:25;19.55;;;17.55;;
63326;SDS011;49452;48.366;10.926;2023-11-22T00:35:56;18.23;;;14.07;;
63326;SDS011;49452;48.366;10.926;2023-11-22T00:36:28;16.35;;;14.73;;
63326;SDS011;49452;48.366;10.926;2023-11-22T00:36:59;16.67;;;14.95;;
63326;SDS011;49452;48.366;10.926;2023-11-22T00:37:30;17.08;;;15.32;;
63326;SDS011;49452;48.366;10.926;2023-11-22T00:38:01;16.98;;;14.65;;
63326;SDS011;49452;48.366;10.926;2023-11-22T00:38:32;17.25;;;15.55;;
63326;SDS011;49452;48.366;10.926;2023-11-22T00:39:06;16.08;;;14.35;;
63326;SDS011;49452;48.366;10.926;2023-11-22T00:39:40;16.02;;;13.95;;
63326;SDS011;49452;48.366;10.926;2023-11-22T00:40:11;16.33;;;14.55;;
63326;SDS011;49452;48.366;10.926;2023-11-22T00:40:42;16.75;;;15.15;;
63326;SDS011;49452;48.366;10.926;2023-11-22T00:41:13;20.60;;;16.20;;
63326;SDS011;49452;48.366;10.926;2023-11-22T00:41:45;17.00;;;15.30;;
63326;SDS011;49452;48.366;10.926;2023-11-22T00:42:16;16.40;;;14.70;;
63326;SDS011;49452;48.366;10.926;2023-11-22T00:42:50;14.68;;;13.27;;
63326;SDS011;49452;48.366;10.926;2023-11-22T00:43:21;20.30;;;17.75;;
63326;SDS011;49452;48.366;10.926;2023-11-22T00:43:52;16.27;;;14.68;;
63326;SDS011;49452;48.366;10.926;2023-11-22T00:44:23;15.38;;;13.75;;
63326;SDS011;49452;48.366;10.926;2023-11-22T00:44:55;16.52;;;14.75;;
63326;SDS011;49452;48.366;10.926;2023-11-22T00:45:26;15.65;;;13.95;;
63326;SDS011;49452;48.366;10.926;2023-11-22T00:45:57;17.58;;;15.68;;
63326;SDS011;49452;48.366;10.926;2023-11-22T00:46:28;19.55;;;16.83;;
63326;SDS011;49452;48.366;10.926;2023-11-22T00:46:58;22.77;;;18.70;;
63326;SDS011;49452;48.366;10.926;2023-11-22T00:47:29;15.57;;;13.93;;
63326;SDS011;49452;48.366;10.926;2023-11-22T00:48:00;52.80;;;30.42;;
63326;SDS011;49452;48.366;10.926;2023-11-22T00:48:31;38.00;;;26.10;;
63326;SDS011;49452;48.366;10.926;2023-11-22T00:49:03;16.88;;;15.20;;
63326;SDS011;49452;48.366;10.926;2023-11-22T00:49:35;17.98;;;16.23;;
63326;SDS011;49452;48.366;10.926;2023-11-22T00:50:06;17.48;;;15.80;;
63326;SDS011;49452;48.366;10.926;2023-11-22T00:50:38;17.90;;;15.77;;
63326;SDS011;49452;48.366;10.926;2023-11-22T00:51:09;15.30;;;13.70;;
63326;SDS011;49452;48.366;10.926;2023-11-22T00:51:41;15.27;;;13.77;;
63326;SDS011;49452;48.366;10.926;2023-11-22T00:52:13;15.18;;;13.80;;
63326;SDS011;49452;48.366;10.926;2023-11-22T00:52:44;13.88;;;12.52;;
63326;SDS011;49452;48.366;10.926;2023-11-22T00:53:15;14.48;;;12.93;;
63326;SDS011;49452;48.366;10.926;2023-11-22T00:53:48;16.75;;;14.40;;
63326;SDS011;49452;48.366;10.926;2023-11-22T00:54:20;16.40;;;14.68;;
63326;SDS011;49452;48.366;10.926;2023-11-22T00:54:51;16.90;;;15.10;;
63326;SDS011;49452;48.366;10.926;2023-11-22T00:55:22;16.63;;;14.50;;
63326;SDS011;49452;48.366;10.926;2023-11-22T00:55:54;13.98;;;12.55;;
63326;SDS011;49452;48.366;10.926;2023-11-22T00:56:25;14.60;;;13.07;;
63326;SDS011;49452;48.366;10.926;2023-11-22T00:56:56;18.48;;;16.17;;
63326;SDS011;49452;48.366;10.926;2023-11-22T00:57:27;16.23;;;14.20;;
63326;SDS011;49452;48.366;10.926;2023-11-22T00:57:58;16.90;;;14.60;;
63326;SDS011;49452;48.366;10.926;2023-11-22T00:58:34;13.93;;;12.52;;
63326;SDS011;49452;48.366;10.926;2023-11-22T00:59:05;14.80;;;13.27;;
63326;SDS011;49452;48.366;10.926;2023-11-22T00:59:36;17.15;;;15.45;;
63326;SDS011;49452;48.366;10.926;2023-11-22T01:00:07;15.52;;;13.90;;
63326;SDS011;49452;48.366;10.926;2023-11-22T01:00:40;13.93;;;12.27;;
63326;SDS011;49452;48.366;10.926;2023-11-22T01:01:11;17.73;;;15.02;;
63326;SDS011;49452;48.366;10.926;2023-11-22T01:01:42;16.95;;;14.07;;
63326;SDS011;49452;48.366;10.926;2023-11-22T01:02:13;15.13;;;13.63;;
63326;SDS011;49452;48.366;10.926;2023-11-22T01:02:44;14.40;;;12.80;;
63326;SDS011;49452;48.366;10.926;2023-11-22T01:03:15;13.50;;;12.20;;
63326;SDS011;49452;48.366;10.926;2023-11-22T01:03:46;13.20;;;11.90;;
63326;SDS011;49452;48.366;10.926;2023-11-22T01:04:18;15.00;;;13.23;;
63326;SDS011;49452;48.366;10.926;2023-11-22T01:04:49;16.77;;;14.77;;
63326;SDS011;49452;48.366;10.926;2023-11-22T01:05:20;15.30;;;13.63;;
63326;SDS011;49452;48.366;10.926;2023-11-22T01:05:52;14.38;;;12.98;;
63326;SDS011;49452;48.366;10.926;2023-11-22T01:06:24;16.80;;;14.15;;
63326;SDS011;49452;48.366;10.926;2023-11-22T01:06:55;15.18;;;13.68;;
63326;SDS011;49452;48.366;10.926;2023-11-22T01:07:26;16.73;;;13.18;;
63326;SDS011;49452;48.366;10.926;2023-11-22T01:07:56;15.82;;;14.13;;
63326;SDS011;49452;48.366;10.926;2023-11-22T01:08:27;12.18;;;11.07;;
63326;SDS011;49452;48.366;10.926;2023-11-22T01:08:58;15.05;;;11.90;;
63326;SDS011;49452;48.366;10.926;2023-11-22T01:09:29;12.82;;;11.57;;
63326;SDS011;49452;48.366;10.926;2023-11-22T01:10:01;11.82;;;10.73;;
63326;SDS011;49452;48.366;10.926;2023-11-22T01:10:32;14.15;;;12.00;;
63326;SDS011;49452;48.366;10.926;2023-11-22T01:11:03;16.73;;;14.57;;
63326;SDS011;49452;48.366;10.926;2023-11-22T01:11:34;13.18;;;11.88;;
63326;SDS011;49452;48.366;10.926;2023-11-22T01:12:05;14.25;;;12.82;;
63326;SDS011;49452;48.366;10.926;2023-11-22T01:12:37;14.48;;;12.98;;
63326;SDS011;49452;48.366;10.926;2023-11-22T01:13:09;16.98;;;14.48;;
63326;SDS011;49452;48.366;10.926;2023-11-22T01:13:40;21.17;;;17.30;;
63326;SDS011;49452;48.366;10.926;2023-11-22T01:14:13;19.05;;;15.93;;
63326;SDS011;49452;48.366;10.926;2023-11-22T01:14:44;13.23;;;12.02;;
63326;SDS011;49452;48.366;10.926;2023-11-22T01:15:15;13.90;;;12.50;;
63326;SDS011;49452;48.366;10.926;2023-11-22T01:15:48;23.85;;;17.63;;
63326;SDS011;49452;48.366;10.926;2023-11-22T01:16:18;13.32;;;11.60;;
63326;SDS011;49452;48.366;10.926;2023-11-22T01:16:49;12.23;;;10.73;;
63326;SDS011;49452;48.366;10.926;2023-11-22T01:17:20;23.42;;;17.52;;
63326;SDS011;49452;48.366;10.926;2023-11-22T01:17:51;14.23;;;12.90;;
63326;SDS011;49452;48.366;10.926;2023-11-22T01:18:22;13.02;;;11.82;;
63326;SDS011;49452;48.366;10.926;2023-11-22T01:18:53;14.73;;;13.13;;
63326;SDS011;49452;48.366;10.926;2023-11-22T01:19:25;12.80;;;11.63;;
63326;SDS011;49452;48.366;10.926;2023-11-22T01:19:57;24.77;;;18.73;;
63326;SDS011;49452;48.366;10.926;2023-11-22T01:20:29;27.95;;;18.98;;
63326;SDS011;49452;48.366;10.926;2023-11-22T01:21:00;23.05;;;18.08;;
63326;SDS011;49452;48.366;10.926;2023-11-22T01:21:31;15.02;;;13.52;;
63326;SDS011;49452;48.366;10.926;2023-11-22T01:22:02;16.83;;;15.02;;
63326;SDS011;49452;48.366;10.926;2023-11-22T01:22:33;17.38;;;14.93;;
63326;SDS011;49452;48.366;10.926;2023-11-22T01:23:04;20.08;;;17.88;;
63326;SDS011;49452;48.366;10.926;2023-11-22T01:23:36;27.42;;;20.52;;
63326;SDS011;49452;48.366;10.926;2023-11-22T01:24:07;15.95;;;14.32;;
63326;SDS011;49452;48.366;10.926;2023-11-22T01:24:38;24.40;;;17.88;;
63326;SDS011;49452;48.366;10.926;2023-11-22T01:25:09;12.52;;;11.32;;
63326;SDS011;49452;48.366;10.926;2023-11-22T01:25:40;12.05;;;10.95;;
63326;SDS011;49452;48.366;10.926;2023-11-22T01:26:11;10.15;;;9.15;;
63326;SDS011;49452;48.366;10.926;2023-11-22T01:26:42;14.77;;;13.23;;
63326;SDS011;49452;48.366;10.926;2023-11-22T01:27:13;14.13;;;12.70;;
63326;SDS011;49452;48.366;10.926;2023-11-22T01:27:44;15.13;;;13.55;;
63326;SDS011;49452;48.366;10.926;2023-11-22T01:28:16;15.10;;;13.10;;
63326;SDS011;49452;48.366;10.926;2023-11-22T01:28:49;14.90;;;13.48;;
63326;SDS011;49452;48.366;10.926;2023-11-22T01:29:21;13.80;;;11.75;;
63326;SDS011;49452;48.366;10.926;2023-11-22T01:29:52;17.58;;;13.93;;
63326;SDS011;49452;48.366;10.926;2023-11-22T01:30:24;12.88;;;11.60;;
63326;SDS011;49452;48.366;10.926;2023-11-22T01:30:55;15.23;;;13.55;;
63326;SDS011;49452;48.366;10.926;2023-11-22T01:31:26;17.65;;;15.40;;
63326;SDS011;49452;48.366;10.926;2023-11-22T01:31:58;16.00;;;14.30;;
63326;SDS011;49452;48.366;10.926;2023-11-22T01:32:29;15.85;;;14.38;;
63326;SDS011;49452;48.366;10.926;2023-11-22T01:33:00;16.02;;;14.30;;
63326;SDS011;49452;48.366;10.926;2023-11-22T01:33:31;24.45;;;20.40;;
63326;SDS011;49452;48.366;10.926;2023-11-22T01:34:03;16.98;;;14.85;;
63326;SDS011;49452;48.366;10.926;2023-11-22T01:34:35;14.52;;;12.98;;
63326;SDS011;49452;48.366;10.926;2023-11-22T01:35:06;15.27;;;13.20;;
63326;SDS011;49452;48.366;10.926;2023-11-22T01:35:38;15.77;;;14.18;;
63326;SDS011;49452;48.366;10.926;2023-11-22T01:36:09;21.50;;;17.98;;
63326;SDS011;49452;48.366;10.926;2023-11-22T01:36:43;15.82;;;14.13;;
63326;SDS011;49452;48.366;10.926;2023-11-22T01:37:14;13.68;;;12.35;;
63326;SDS011;49452;48.366;10.926;2023-11-22T01:37:45;11.55;;;10.52;;
63326;SDS011;49452;48.366;10.926;2023-11-22T01:38:16;12.50;;;11.32;;
63326;SDS011;49452;48.366;10.926;2023-11-22T01:38:47;9.65;;;8.85;;
63326;SDS011;49452;48.366;10.926;2023-11-22T01:39:18;17.58;;;14.68;;
63326;SDS011;49452;48.366;10.926;2023-11-22T01:39:49;10.05;;;9.05;;
63326;SDS011;49452;48.366;10.926;2023-11-22T01:40:20;12.70;;;11.50;;
63326;SDS011;49452;48.366;10.926;2023-11-22T01:40:51;12.88;;;11.63;;
63326;SDS011;49452;48.366;10.926;2023-11-22T01:41:22;11.27;;;10.23;;
63326;SDS011;49452;48.366;10.926;2023-11-22T01:41:53;8.60;;;7.90;;
63326;SDS011;49452;48.366;10.926;2023-11-22T01:42:24;12.00;;;10.87;;
63326;SDS011;49452;48.366;10.926;2023-11-22T01:42:55;11.32;;;10.32;;
63326;SDS011;49452;48.366;10.926;2023-11-22T01:43:26;12.27;;;11.15;;
63326;SDS011;49452;48.366;10.926;2023-11-22T01:43:57;10.48;;;9.57;;
63326;SDS011;49452;48.366;10.926;2023-11-22T01:44:28;12.35;;;11.15;;
63326;SDS011;49452;48.366;10.926;2023-11-22T01:44:59;9.60;;;8.70;;
63326;SDS011;49452;48.366;10.926;2023-11-22T01:45:30;9.55;;;8.60;;
63326;SDS011;49452;48.366;10.926;2023-11-22T01:46:01;11.80;;;10.75;;
63326;SDS011;49452;48.366;10.926;2023-11-22T01:46:32;16.15;;;12.82;;
63326;SDS011;49452;48.366;10.926;2023-11-22T01:47:05;16.42;;;14.40;;
63326;SDS011;49452;48.366;10.926;2023-11-22T01:47:37;15.70;;;14.10;;
63326;SDS011;49452;48.366;10.926;2023-11-22T01:48:08;9.88;;;9.07;;
63326;SDS011;49452;48.366;10.926;2023-11-22T01:48:41;9.20;;;8.38;;
63326;SDS011;49452;48.366;10.926;2023-11-22T01:49:12;11.02;;;10.07;;
63326;SDS011;49452;48.366;10.926;2023-11-22T01:49:43;13.35;;;12.15;;
63326;SDS011;49452;48.366;10.926;2023-11-22T01:50:15;11.20;;;10.07;;
63326;SDS011;49452;48.366;10.926;2023-11-22T01:50:47;10.82;;;9.75;;
63326;SDS011;49452;48.366;10.926;2023-11-22T01:51:21;6.30;;;5.80;;
63326;SDS011;49452;48.366;10.926;2023-11-22T01:51:53;7.22;;;6.63;;
63326;SDS011;49452;48.366;10.926;2023-11-22T01:52:25;6.55;;;6.05;;
63326;SDS011;49452;48.366;10.926;2023-11-22T01:52:57;6.30;;;5.80;;
63326;SDS011;49452;48.366;10.926;2023-11-22T01:53:28;8.13;;;7.35;;
63326;SDS011;49452;48.366;10.926;2023-11-22T01:53:59;9.05;;;8.25;;
63326;SDS011;49452;48.366;10.926;2023-11-22T01:54:32;7.05;;;6.45;;
63326;SDS011;49452;48.366;10.926;2023-11-22T01:55:04;7.28;;;6.68;;
63326;SDS011;49452;48.366;10.926;2023-11-22T01:55:36;7.05;;;6.45;;
63326;SDS011;49452;48.366;10.926;2023-11-22T01:56:07;6.32;;;5.82;;
63326;SDS011;49452;48.366;10.926;2023-11-22T01:56:37;5.63;;;5.22;;
63326;SDS011;49452;48.366;10.926;2023-11-22T01:57:09;5.55;;;5.15;;
63326;SDS011;49452;48.366;10.926;2023-11-22T01:57:40;4.85;;;4.45;;
63326;SDS011;49452;48.366;10.926;2023-11-22T01:58:11;6.63;;;6.05;;
63326;SDS011;49452;48.366;10.926;2023-11-22T01:58:43;4.90;;;4.60;;
63326;SDS011;49452;48.366;10.926;2023-11-22T01:59:14;4.25;;;3.95;;
63326;SDS011;49452;48.366;10.926;2023-11-22T01:59:46;6.63;;;6.13;;
63326;SDS011;49452;48.366;10.926;2023-11-22T02:00:18;6.25;;;5.65;;
63326;SDS011;49452;48.366;10.926;2023-11-22T02:00:50;5.80;;;5.30;;
63326;SDS011;49452;48.366;10.926;2023-11-22T02:01:23;5.60;;;5.20;;
63326;SDS011;49452;48.366;10.926;2023-11-22T02:01:55;7.00;;;6.40;;
63326;SDS011;49452;48.366;10.926;2023-11-22T02:02:27;6.63;;;6.03;;
63326;SDS011;49452;48.366;10.926;2023-11-22T02:02:58;5.68;;;5.20;;
63326;SDS011;49452;48.366;10.926;2023-11-22T02:03:29;7.07;;;6.45;;
63326;SDS011;49452;48.366;10.926;2023-11-22T02:04:01;5.22;;;4.82;;
63326;SDS011;49452;48.366;10.926;2023-11-22T02:04:32;5.57;;;5.18;;
63326;SDS011;49452;48.366;10.926;2023-11-22T02:05:03;8.63;;;7.05;;
63326;SDS011;49452;48.366;10.926;2023-11-22T02:05:35;10.20;;;9.20;;
63326;SDS011;49452;48.366;10.926;2023-11-22T02:06:06;6.72;;;6.18;;
63326;SDS011;49452;48.366;10.926;2023-11-22T02:06:40;5.95;;;5.55;;
63326;SDS011;49452;48.366;10.926;2023-11-22T02:07:11;8.55;;;7.78;;
63326;SDS011;49452;48.366;10.926;2023-11-22T02:07:42;7.47;;;6.85;;
63326;SDS011;49452;48.366;10.926;2023-11-22T02:08:15;8.20;;;7.40;;
63326;SDS011;49452;48.366;10.926;2023-11-22T02:08:46;7.97;;;7.38;;
63326;SDS011;49452;48.366;10.926;2023-11-22T02:09:18;7.53;;;6.93;;
63326;SDS011;49452;48.366;10.926;2023-11-22T02:09:49;8.25;;;7.55;;
63326;SDS011;49452;48.366;10.926;2023-11-22T02:10:20;7.00;;;6.40;;
63326;SDS011;49452;48.366;10.926;2023-11-22T02:10:58;9.45;;;8.60;;
63326;SDS011;49452;48.366;10.926;2023-11-22T02:11:35;8.65;;;7.82;;
63326;SDS011;49452;48.366;10.926;2023-11-22T02:12:06;7.72;;;7.13;;
63326;SDS011;49452;48.366;10.926;2023-11-22T02:12:38;8.25;;;7.53;;
63326;SDS011;49452;48.366;10.926;2023-11-22T02:13:09;9.10;;;8.30;;
63326;SDS011;49452;48.366;10.926;2023-11-22T02:13:40;7.97;;;7.28;;
63326;SDS011;49452;48.366;10.926;2023-11-22T02:14:11;10.23;;;9.25;;
63326;SDS011;49452;48.366;10.926;2023-11-22T02:14:42;10.52;;;9.27;;
63326;SDS011;49452;48.366;10.926;2023-11-22T02:15:13;6.72;;;6.18;;
63326;SDS011;49452;48.366;10.926;2023-11-22T02:15:44;7.72;;;7.03;;
63326;SDS011;49452;48.366;10.926;2023-11-22T02:16:17;6.88;;;6.28;;
63326;SDS011;49452;48.366;10.926;2023-11-22T02:16:49;5.32;;;4.93;;
63326;SDS011;49452;48.366;10.926;2023-11-22T02:17:21;7.95;;;7.25;;
63326;SDS011;49452;48.366;10.926;2023-11-22T02:17:53;7.18;;;6.03;;
63326;SDS011;49452;48.366;10.926;2023-11-22T02:18:27;7.90;;;7.20;;
63326;SDS011;49452;48.366;10.926;2023-11-22T02:18:58;8.02;;;7.43;;
63326;SDS011;49452;48.366;10.926;2023-11-22T02:19:29;7.55;;;6.85;;
63326;SDS011;49452;48.366;10.926;2023-11-22T02:20:01;8.82;;;8.02;;
63326;SDS011;49452;48.366;10.926;2023-11-22T02:20:32;6.70;;;6.20;;
63326;SDS011;49452;48.366;10.926;2023-11-22T02:21:03;8.02;;;7.43;;
63326;SDS011;49452;48.366;10.926;2023-11-22T02:21:34;7.30;;;6.70;;
63326;SDS011;49452;48.366;10.926;2023-11-22T02:22:05;5.85;;;5.40;;
63326;SDS011;49452;48.366;10.926;2023-11-22T02:22:45;5.28;;;4.88;;
63326;SDS011;49452;48.366;10.926;2023-11-22T02:23:16;5.65;;;5.25;;
63326;SDS011;49452;48.366;10.926;2023-11-22T02:23:47;5.53;;;5.10;;
63326;SDS011;49452;48.366;10.926;2023-11-22T02:24:20;4.82;;;4.45;;
63326;SDS011;49452;48.366;10.926;2023-11-22T02:24:52;6.20;;;5.68;;
63326;SDS011;49452;48.366;10.926;2023-11-22T02:25:23;7.78;;;7.07;;
63326;SDS011;49452;48.366;10.926;2023-11-22T02:25:54;5.15;;;4.75;;
63326;SDS011;49452;48.366;10.926;2023-11-22T02:26:25;5.82;;;5.43;;
63326;SDS011;49452;48.366;10.926;2023-11-22T02:26:56;6.30;;;5.80;;
63326;SDS011;49452;48.366;10.926;2023-11-22T02:27:27;5.15;;;4.65;;
63326;SDS011;49452;48.366;10.926;2023-11-22T02:27:58;7.60;;;6.95;;
63326;SDS011;49452;48.366;10.926;2023-11-22T02:28:29;8.00;;;7.30;;
63326;SDS011;49452;48.366;10.926;2023-11-22T02:29:00;7.70;;;7.05;;
63326;SDS011;49452;48.366;10.926;2023-11-22T02:29:31;7.03;;;6.43;;
63326;SDS011;49452;48.366;10.926;2023-11-22T02:30:02;9.45;;;7.53;;
63326;SDS011;49452;48.366;10.926;2023-11-22T02:30:36;7.03;;;6.43;;
63326;SDS011;49452;48.366;10.926;2023-11-22T02:31:07;7.13;;;6.53;;
63326;SDS011;49452;48.366;10.926;2023-11-22T02:31:41;6.32;;;5.82;;
63326;SDS011;49452;48.366;10.926;2023-11-22T02:32:12;6.88;;;6.15;;
63326;SDS011;49452;48.366;10.926;2023-11-22T02:32:43;6.47;;;5.97;;
63326;SDS011;49452;48.366;10.926;2023-11-22T02:33:15;6.60;;;6.00;;
63326;SDS011;49452;48.366;10.926;2023-11-22T02:33:46;3.97;;;3.67;;
63326;SDS011;49452;48.366;10.926;2023-11-22T02:34:17;6.50;;;5.97;;
63326;SDS011;49452;48.366;10.926;2023-11-22T02:34:47;4.95;;;4.55;;
63326;SDS011;49452;48.366;10.926;2023-11-22T02:35:19;5.95;;;5.45;;
63326;SDS011;49452;48.366;10.926;2023-11-22T02:35:50;5.93;;;5.32;;
63326;SDS011;49452;48.366;10.926;2023-11-22T02:36:23;5.38;;;4.97;;
63326;SDS011;49452;48.366;10.926;2023-11-22T02:36:55;5.25;;;4.75;;
63326;SDS011;49452;48.366;10.926;2023-11-22T02:37:26;5.43;;;5.00;;
63326;SDS011;49452;48.366;10.926;2023-11-22T02:37:59;5.80;;;5.13;;
63326;SDS011;49452;48.366;10.926;2023-11-22T02:38:30;6.10;;;5.60;;
63326;SDS011;49452;48.366;10.926;2023-11-22T02:39:02;6.63;;;6.13;;
63326;SDS011;49452;48.366;10.926;2023-11-22T02:39:54;8.13;;;7.35;;
63326;SDS011;49452;48.366;10.926;2023-11-22T02:40:27;6.90;;;6.30;;
63326;SDS011;49452;48.366;10.926;2023-11-22T02:40:59;5.68;;;5.20;;
63326;SDS011;49452;48.366;10.926;2023-11-22T02:41:30;6.00;;;5.50;;
63326;SDS011;49452;48.366;10.926;2023-11-22T02:42:01;7.03;;;6.43;;
63326;SDS011;49452;48.366;10.926;2023-11-22T02:42:33;8.77;;;7.97;;
63326;SDS011;49452;48.366;10.926;2023-11-22T02:43:05;8.10;;;7.35;;
63326;SDS011;49452;48.366;10.926;2023-11-22T02:43:39;5.07;;;4.57;;
63326;SDS011;49452;48.366;10.926;2023-11-22T02:44:12;6.45;;;5.90;;
63326;SDS011;49452;48.366;10.926;2023-11-22T02:44:47;5.30;;;4.90;;
63326;SDS011;49452;48.366;10.926;2023-11-22T02:45:28;7.63;;;6.88;;
63326;SDS011;49452;48.366;10.926;2023-11-22T02:45:59;8.43;;;7.63;;
63326;SDS011;49452;48.366;10.926;2023-11-22T02:46:30;7.35;;;6.57;;
63326;SDS011;49452;48.366;10.926;2023-11-22T02:47:01;6.38;;;5.78;;
63326;SDS011;49452;48.366;10.926;2023-11-22T02:47:32;7.00;;;6.40;;
63326;SDS011;49452;48.366;10.926;2023-11-22T02:48:05;6.38;;;5.75;;
63326;SDS011;49452;48.366;10.926;2023-11-22T02:48:40;5.97;;;5.47;;
63326;SDS011;49452;48.366;10.926;2023-11-22T02:49:11;6.93;;;6.32;;
63326;SDS011;49452;48.366;10.926;2023-11-22T02:49:42;6.60;;;6.00;;
63326;SDS011;49452;48.366;10.926;2023-11-22T02:50:13;7.13;;;6.43;;
63326;SDS011;49452;48.366;10.926;2023-11-22T02:50:44;7.70;;;6.93;;
63326;SDS011;49452;48.366;10.926;2023-11-22T02:51:15;5.85;;;5.45;;
63326;SDS011;49452;48.366;10.926;2023-11-22T02:51:47;6.47;;;5.97;;
63326;SDS011;49452;48.366;10.926;2023-11-22T02:52:18;6.38;;;5.85;;
63326;SDS011;49452;48.366;10.926;2023-11-22T02:52:49;4.28;;;3.97;;
63326;SDS011;49452;48.366;10.926;2023-11-22T02:53:21;8.13;;;7.40;;
63326;SDS011;49452;48.366;10.926;2023-11-22T02:53:53;7.90;;;7.20;;
63326;SDS011;49452;48.366;10.926;2023-11-22T02:54:24;6.22;;;5.72;;
63326;SDS011;49452;48.366;10.926;2023-11-22T02:54:55;7.75;;;6.90;;
63326;SDS011;49452;48.366;10.926;2023-11-22T02:55:26;6.60;;;6.10;;
63326;SDS011;49452;48.366;10.926;2023-11-22T02:56:00;7.50;;;6.88;;
63326;SDS011;49452;48.366;10.926;2023-11-22T02:56:31;4.68;;;4.38;;
63326;SDS011;49452;48.366;10.926;2023-11-22T02:57:02;6.35;;;5.85;;
63326;SDS011;49452;48.366;10.926;2023-11-22T02:57:34;5.55;;;5.15;;
63326;SDS011;49452;48.366;10.926;2023-11-22T02:58:05;5.97;;;5.47;;
63326;SDS011;49452;48.366;10.926;2023-11-22T02:58:37;4.22;;;3.92;;
63326;SDS011;49452;48.366;10.926;2023-11-22T02:59:07;6.32;;;5.82;;
63326;SDS011;49452;48.366;10.926;2023-11-22T02:59:44;6.97;;;6.38;;
63326;SDS011;49452;48.366;10.926;2023-11-22T03:00:15;5.88;;;5.38;;
63326;SDS011;49452;48.366;10.926;2023-11-22T03:00:46;4.47;;;4.10;;
63326;SDS011;49452;48.366;10.926;2023-11-22T03:01:16;5.82;;;5.32;;
63326;SDS011;49452;48.366;10.926;2023-11-22T03:01:50;5.57;;;5.07;;
63326;SDS011;49452;48.366;10.926;2023-11-22T03:02:22;5.88;;;5.38;;
63326;SDS011;49452;48.366;10.926;2023-11-22T03:02:52;5.72;;;5.22;;
63326;SDS011;49452;48.366;10.926;2023-11-22T03:03:24;5.03;;;4.63;;
63326;SDS011;49452;48.366;10.926;2023-11-22T03:03:55;5.10;;;4.70;;
63326;SDS011;49452;48.366;10.926;2023-11-22T03:04:26;3.92;;;3.63;;